Alcalde, New Mexico
Current Conditions -  °F | °C
As of 11:35 AM on Sunday 21 Dec 2014 (Local Time) from KLAM Reporting Station
Clear Clear  
Wind Chill: -2°   Ceiling: Unl
Heat Index:   Visibility: 10mi
Dew Point: -3°   Wind: 5mph
Humidity: 74%   Direction: 50°NE
Pressure: 30.01"   Gusts: NA
Location:  36.09°N, 106.06°W
Report Text: KLAM 211835Z AUTO 05004KT 10SM CLR 01/M03 A3001 RMK AO2 T00071034
Loading
Personal Weather Stations






























Interactive Weather Map New forecast layout! Learn more

10-Day Weather Forecast

Advertisements
Track Severe Weather on mobile